Air Resources Laboratory banner image
Air Resources Laboratory web site National Oceanic and Atmospheric Administration (NOAA)

ky metar


KBWG 132353Z AUTO 00000KT 10SM CLR 27/16 A3003 RMK AO2 SLP165 T02670156 10294
 20267 56008=
KCVG 132352Z 00000KT 10SM BKN140 OVC220 24/16 A3005 RMK AO2 RAB00E14 SLP167
 P0000 60000 T02440161 10272 20239 56009=
KEHR 132356Z AUTO 00000KT 10SM CLR 24/18 A3003 RMK AO2 SLP166 T02440183 10283
 20244 56012=
KEKX 132355Z AUTO 16003KT 10SM CLR 24/16 A3004 RMK AO2 60001 T02410155 10279
 20241=
KFTK 132356Z AUTO 00000KT 10SM FEW190 23/19 A3003 RMK AO2 SLP168 T02300185
 10273 20230 56009 $=
KHOP 132356Z AUTO 35004KT 10SM CLR 26/17 A3002 RMK AO2 SLP164 T02630174 10280
 20263 56008=
KJKL 132353Z AUTO VRB03KT 10SM CLR 24/14 A3008 RMK AO2 SLP172 T02440144 10278
 20244 55009=
KLEX 132354Z 00000KT 10SM CLR 24/16 A3005 RMK AO2 SLP169 T02440156 10289 20244
 56014=
KLOU 132353Z 17005KT 10SM CLR 26/15 A3003 RMK AO2 SLP165 T02610150 10289 20261
 56008=
KLOZ 132353Z AUTO 05003KT 10SM CLR 25/17 A3006 RMK AO2 SLP170 T02500167 10283
 20250 55006=
KOWB 132356Z 25003KT 10SM CLR 25/19 A3003 RMK AO2 SLP168 T02500189 10283 20250
 56009=
KPAH 132353Z 31004KT 10SM CLR 28/18 A3002 RMK AO2 SLP161 T02830178 10317 20283
 55007 $=
KSDF 132356Z 18005KT 10SM FEW150 BKN250 27/13 A3003 RMK AO2 SLP164 T02720128
 10300 20272 55006=
KSME 132355Z AUTO 00000KT 10SM CLR 26/17 A3003 RMK AO2=